createdAt,value
2018-07-24T00:00:37.799Z,19.80
2018-07-24T00:05:40.877Z,19.70
2018-07-24T00:10:44.000Z,19.70
2018-07-24T00:15:47.072Z,19.60
2018-07-24T00:20:50.153Z,19.60
2018-07-24T00:25:53.183Z,19.50
2018-07-24T00:30:56.436Z,19.40
2018-07-24T00:35:59.528Z,19.40
2018-07-24T00:41:02.672Z,19.30
2018-07-24T00:46:05.824Z,19.30
2018-07-24T00:51:08.980Z,19.30
2018-07-24T00:56:12.192Z,19.20
2018-07-24T01:01:15.331Z,19.10
2018-07-24T01:06:18.486Z,19.10
2018-07-24T01:11:22.638Z,19.00
2018-07-24T01:16:26.293Z,18.90
2018-07-24T01:21:29.440Z,18.90
2018-07-24T01:26:32.640Z,18.80
2018-07-24T01:31:35.972Z,18.70
2018-07-24T01:36:39.056Z,18.60
2018-07-24T01:41:42.163Z,18.60
2018-07-24T01:46:45.471Z,18.50
2018-07-24T01:51:48.627Z,18.40
2018-07-24T01:56:51.712Z,18.40
2018-07-24T02:01:54.729Z,18.30
2018-07-24T02:06:57.785Z,18.30
2018-07-24T02:12:00.939Z,18.30
2018-07-24T02:17:04.072Z,18.20
2018-07-24T02:22:07.530Z,18.20
2018-07-24T02:27:11.968Z,18.10
2018-07-24T02:32:15.009Z,18.10
2018-07-24T02:37:18.127Z,18.10
2018-07-24T02:42:21.416Z,18.00
2018-07-24T02:47:24.493Z,18.00
2018-07-24T02:52:27.586Z,17.90
2018-07-24T02:57:30.644Z,17.90
2018-07-24T03:02:33.676Z,17.90
2018-07-24T03:07:36.800Z,17.90
2018-07-24T03:12:39.908Z,17.80
2018-07-24T03:17:42.983Z,17.80
2018-07-24T03:22:46.069Z,17.70
2018-07-24T03:27:49.168Z,17.70
2018-07-24T03:32:52.332Z,17.80
2018-07-24T03:37:55.389Z,17.80
2018-07-24T03:42:58.736Z,17.80
2018-07-24T03:48:01.854Z,17.80
2018-07-24T03:53:05.244Z,17.90
2018-07-24T03:58:08.355Z,17.90
2018-07-24T04:03:11.616Z,18.00
2018-07-24T04:08:14.667Z,18.10
2018-07-24T04:13:17.749Z,18.10
2018-07-24T04:18:20.808Z,18.20
2018-07-24T04:23:23.907Z,18.40
2018-07-24T04:28:27.030Z,18.50
2018-07-24T04:33:30.199Z,18.60
2018-07-24T04:38:33.448Z,18.80
2018-07-24T04:43:36.621Z,19.00
2018-07-24T04:48:39.642Z,19.10
2018-07-24T04:53:42.783Z,19.40
2018-07-24T04:58:45.825Z,19.50
2018-07-24T05:03:48.916Z,19.50
2018-07-24T05:08:51.974Z,19.70
2018-07-24T05:13:55.320Z,19.80
2018-07-24T05:18:58.381Z,20.10
2018-07-24T05:24:01.492Z,20.20
2018-07-24T05:29:04.645Z,20.50
2018-07-24T05:34:07.715Z,20.60
2018-07-24T05:39:12.231Z,20.80
2018-07-24T05:44:15.298Z,21.00
2018-07-24T05:54:21.248Z,21.50
2018-07-24T05:59:24.284Z,21.80
2018-07-24T06:04:27.404Z,22.20
2018-07-24T06:09:30.629Z,22.50
2018-07-24T06:14:33.783Z,22.90
2018-07-24T06:19:36.845Z,24.10
2018-07-24T06:24:39.884Z,25.80
2018-07-24T06:29:42.989Z,27.10
2018-07-24T06:34:46.023Z,28.30
2018-07-24T06:39:49.441Z,28.80
2018-07-24T06:44:52.651Z,29.50
2018-07-24T06:54:58.692Z,30.60
2018-07-24T07:00:01.781Z,30.60
2018-07-24T07:05:05.589Z,31.10
2018-07-24T07:10:09.167Z,32.00
2018-07-24T07:15:12.245Z,31.80
2018-07-24T07:20:15.535Z,31.20
2018-07-24T07:25:18.672Z,30.90
2018-07-24T07:30:21.826Z,30.80
2018-07-24T07:35:24.919Z,30.70
2018-07-24T07:40:28.031Z,31.60
2018-07-24T07:50:34.258Z,32.60
2018-07-24T07:55:37.407Z,32.80
2018-07-24T08:00:40.449Z,33.30
2018-07-24T08:05:43.538Z,34.00
2018-07-24T08:10:46.667Z,32.70
2018-07-24T08:15:50.108Z,32.70
2018-07-24T08:20:53.151Z,32.60
2018-07-24T08:25:56.277Z,33.50
2018-07-24T08:30:59.383Z,32.50
2018-07-24T08:36:02.529Z,32.30
2018-07-24T08:41:05.609Z,31.80
2018-07-24T08:46:09.176Z,32.80
2018-07-24T08:51:12.559Z,33.10
2018-07-24T08:56:15.830Z,33.10
2018-07-24T09:01:19.774Z,32.50
2018-07-24T09:06:23.045Z,30.60
2018-07-24T09:11:26.381Z,29.30
2018-07-24T09:16:29.448Z,29.90
2018-07-24T09:21:32.879Z,30.10
2018-07-24T09:26:36.824Z,29.50
2018-07-24T09:31:40.036Z,29.00
2018-07-24T09:36:43.180Z,29.30
2018-07-24T09:41:46.494Z,29.30
2018-07-24T09:46:49.869Z,29.10
2018-07-24T09:51:53.111Z,29.00
2018-07-24T09:56:56.176Z,29.40
2018-07-24T10:01:59.380Z,29.50
2018-07-24T10:12:05.767Z,29.40
2018-07-24T10:17:08.865Z,28.90
2018-07-24T10:22:12.197Z,28.90
2018-07-24T10:27:15.943Z,29.30
2018-07-24T10:32:19.004Z,29.40
2018-07-24T10:37:22.113Z,29.50
2018-07-24T10:42:25.273Z,29.30
2018-07-24T10:52:56.288Z,29.40
2018-07-24T10:57:59.387Z,29.50
2018-07-24T11:03:02.568Z,28.90
2018-07-24T11:08:06.133Z,29.00
2018-07-24T11:13:09.281Z,29.30
2018-07-24T11:18:12.865Z,29.70
2018-07-24T11:23:17.043Z,29.50
2018-07-24T11:28:20.048Z,29.50
2018-07-24T11:33:23.229Z,29.30
2018-07-24T11:38:26.443Z,29.00
2018-07-24T11:43:29.591Z,29.10
2018-07-24T11:48:32.669Z,29.40
2018-07-24T11:53:36.009Z,29.50
2018-07-24T11:58:39.278Z,29.30
2018-07-24T12:03:42.425Z,29.20
2018-07-24T12:08:45.586Z,29.10
2018-07-24T12:13:48.689Z,29.40
2018-07-24T12:18:51.757Z,30.00
2018-07-24T12:28:57.819Z,29.60
2018-07-24T12:34:00.876Z,29.50
2018-07-24T12:39:06.019Z,29.40
2018-07-24T12:44:09.088Z,29.10
2018-07-24T12:49:12.179Z,28.80
2018-07-24T12:54:15.237Z,28.80
2018-07-24T12:59:18.285Z,28.80
2018-07-24T13:04:21.350Z,29.00
2018-07-24T13:09:24.427Z,29.10
2018-07-24T13:14:27.496Z,29.20
2018-07-24T13:19:30.597Z,29.20
2018-07-24T13:24:33.702Z,28.80
2018-07-24T13:29:36.821Z,28.50
2018-07-24T13:34:40.074Z,28.40
2018-07-24T13:39:43.482Z,28.50
2018-07-24T13:44:46.702Z,28.80
2018-07-24T13:49:49.868Z,28.90
2018-07-24T13:54:52.989Z,29.10
2018-07-24T13:59:56.050Z,29.10
2018-07-24T14:04:59.112Z,28.90
2018-07-24T14:10:02.177Z,28.80
2018-07-24T14:15:06.393Z,29.00
2018-07-24T14:20:09.567Z,29.30
2018-07-24T14:25:12.634Z,29.40
2018-07-24T14:30:15.722Z,29.30
2018-07-24T14:35:18.800Z,29.10
2018-07-24T14:40:21.881Z,29.00
2018-07-24T14:45:25.974Z,28.90
2018-07-24T14:50:29.070Z,28.90
2018-07-24T14:55:32.116Z,29.00
2018-07-24T15:00:35.153Z,28.80
2018-07-24T15:05:38.206Z,28.70
2018-07-24T15:10:41.297Z,28.90
2018-07-24T15:15:44.356Z,29.00
2018-07-24T15:20:47.377Z,29.00
2018-07-24T15:25:50.407Z,29.00
2018-07-24T15:30:53.509Z,29.10
2018-07-24T15:35:56.667Z,29.10
2018-07-24T15:45:58.347Z,29.30
2018-07-24T15:51:01.400Z,29.30
2018-07-24T15:56:04.503Z,29.40
2018-07-24T16:01:07.504Z,29.30
2018-07-24T16:06:10.566Z,29.20
2018-07-24T16:11:13.582Z,29.10
2018-07-24T16:16:16.930Z,28.90
2018-07-24T16:21:20.002Z,29.00
2018-07-24T16:26:23.052Z,28.90
2018-07-24T16:31:26.097Z,28.90
2018-07-24T16:36:29.170Z,28.80
2018-07-24T16:41:32.205Z,28.80
2018-07-24T16:46:35.255Z,28.80
2018-07-24T16:51:38.306Z,28.80
2018-07-24T16:56:41.331Z,28.80
2018-07-24T17:01:50.994Z,28.80
2018-07-24T17:06:54.093Z,28.70
2018-07-24T17:11:57.181Z,28.70
2018-07-24T17:17:00.225Z,28.60
2018-07-24T17:22:03.313Z,28.60
2018-07-24T17:27:06.374Z,28.50
2018-07-24T17:32:09.526Z,28.40
2018-07-24T17:37:12.598Z,28.40
2018-07-24T17:42:15.713Z,28.30
2018-07-24T17:47:18.805Z,28.30
2018-07-24T17:52:21.875Z,28.10
2018-07-24T17:57:25.013Z,28.10
2018-07-24T18:02:28.129Z,28.00
2018-07-24T18:07:31.307Z,28.00
2018-07-24T18:12:34.340Z,27.80
2018-07-24T18:17:37.412Z,27.70
2018-07-24T18:22:40.610Z,27.50
2018-07-24T18:27:43.738Z,27.40
2018-07-24T18:32:46.904Z,27.40
2018-07-24T18:37:50.017Z,27.20
2018-07-24T18:42:53.136Z,27.00
2018-07-24T18:47:56.307Z,26.90
2018-07-24T18:52:59.391Z,26.80
2018-07-24T18:58:23.968Z,26.70
2018-07-24T19:03:27.197Z,26.50
2018-07-24T19:08:30.491Z,26.40
2018-07-24T19:18:37.658Z,26.20
2018-07-24T19:23:41.112Z,26.10
2018-07-24T19:28:44.277Z,25.90
2018-07-24T19:33:47.391Z,25.70
2018-07-24T19:38:50.548Z,25.50
2018-07-24T19:43:53.681Z,25.50
2018-07-24T19:48:56.782Z,25.40
2018-07-24T19:54:00.524Z,25.30
2018-07-24T19:59:03.766Z,25.20
2018-07-24T20:04:06.816Z,25.10
2018-07-24T20:09:11.215Z,25.00
2018-07-24T20:14:14.400Z,24.80
2018-07-24T20:19:17.505Z,24.70
2018-07-24T20:24:22.293Z,24.60
2018-07-24T20:29:25.356Z,24.50
2018-07-24T20:34:28.441Z,24.40
2018-07-24T20:39:32.614Z,24.30
2018-07-24T20:44:50.876Z,24.10
2018-07-24T20:49:53.958Z,24.10
2018-07-24T20:54:57.064Z,24.00
2018-07-24T21:00:00.258Z,23.90
2018-07-24T21:05:03.414Z,23.90
2018-07-24T21:10:10.788Z,23.90
2018-07-24T21:15:13.984Z,23.70
2018-07-24T21:20:17.104Z,23.60
2018-07-24T21:25:20.208Z,23.60
2018-07-24T21:30:23.276Z,23.60
2018-07-24T21:35:26.421Z,23.60
2018-07-24T21:40:29.635Z,23.40
2018-07-24T21:45:32.796Z,23.40
2018-07-24T21:50:35.937Z,23.30
2018-07-24T21:55:39.128Z,23.10
2018-07-24T22:00:42.247Z,23.00
2018-07-24T22:05:45.357Z,22.90
2018-07-24T22:10:48.467Z,22.80
2018-07-24T22:15:51.582Z,22.70
2018-07-24T22:20:55.763Z,22.70
2018-07-24T22:25:58.906Z,22.60
2018-07-24T22:31:01.981Z,22.50
2018-07-24T22:36:05.229Z,22.40
2018-07-24T22:41:08.330Z,22.30
2018-07-24T22:46:12.549Z,22.20
2018-07-24T22:51:15.725Z,22.20
2018-07-24T22:56:18.769Z,22.10
2018-07-24T23:01:23.878Z,22.10
2018-07-24T23:06:27.033Z,22.00
2018-07-24T23:11:30.123Z,21.90
2018-07-24T23:16:33.169Z,21.90
2018-07-24T23:21:36.310Z,21.80
2018-07-24T23:26:39.436Z,21.80
2018-07-24T23:31:42.464Z,21.80
2018-07-24T23:36:45.534Z,21.70
2018-07-24T23:41:48.589Z,21.70
2018-07-24T23:46:51.764Z,21.70
2018-07-24T23:51:54.747Z,21.70
2018-07-24T23:56:57.909Z,21.60
